Time;durP1;ratioP1;P1;durP2;ratioP2;P2;SDS_P1;SDS_P2;PMS_P1;PMS_P2;Temp;Humidity;BMP_temperature;BMP_pressure;BME280_temperature;BME280_humidity;BME280_pressure;Samples;Min_cycle;Max_cycle;Signal;HPM_P1;HPM_P2
2023/10/03 00:00:27;;;;;;;7.17;4.03;;;;;;;;;;5070969;28;20224;-70
2023/10/03 00:02:55;;;;;;;5.83;3.63;;;;;;;;;;5070610;28;20705;-70
2023/10/03 00:05:23;;;;;;;6.80;3.87;;;;;;;;;;5071251;28;20303;-70
2023/10/03 00:07:51;;;;;;;5.47;3.67;;;;;;;;;;5070494;28;20207;-70
2023/10/03 00:10:18;;;;;;;3.93;3.33;;;;;;;;;;5071456;28;20198;-70
2023/10/03 00:12:48;;;;;;;7.13;3.77;;;;;;;;;;5071333;28;20653;-70
2023/10/03 00:15:17;;;;;;;7.87;4.37;;;;;;;;;;5070883;28;20766;-70
2023/10/03 00:17:45;;;;;;;4.80;3.13;;;;;;;;;;5070190;28;20252;-70
2023/10/03 00:20:13;;;;;;;4.30;3.33;;;;;;;;;;5065065;28;20292;-70
2023/10/03 00:22:40;;;;;;;4.87;3.23;;;;;;;;;;5070303;28;20205;-70
2023/10/03 00:25:09;;;;;;;9.50;4.70;;;;;;;;;;5070991;28;20291;-70
2023/10/03 00:27:37;;;;;;;7.03;4.00;;;;;;;;;;5070427;28;20271;-70
2023/10/03 00:30:06;;;;;;;6.40;3.70;;;;;;;;;;5070942;28;20208;-70
2023/10/03 00:32:34;;;;;;;4.57;3.10;;;;;;;;;;5071062;28;20566;-70
2023/10/03 00:35:02;;;;;;;9.07;4.13;;;;;;;;;;5071069;28;20209;-70
2023/10/03 00:37:30;;;;;;;7.83;3.90;;;;;;;;;;5069921;28;20219;-70
2023/10/03 00:39:59;;;;;;;26.20;5.27;;;;;;;;;;5070743;28;20210;-70
2023/10/03 00:42:26;;;;;;;16.73;3.90;;;;;;;;;;5070129;28;20197;-70
2023/10/03 00:44:53;;;;;;;11.23;3.87;;;;;;;;;;5070646;28;20208;-70
2023/10/03 00:47:20;;;;;;;4.27;3.60;;;;;;;;;;5056669;28;20233;-70
2023/10/03 00:49:49;;;;;;;4.43;3.20;;;;;;;;;;5070812;28;20270;-70
2023/10/03 00:52:17;;;;;;;9.00;4.53;;;;;;;;;;5069677;28;20201;-70
2023/10/03 00:54:46;;;;;;;6.30;4.07;;;;;;;;;;5070756;28;20233;-70
2023/10/03 00:57:15;;;;;;;5.63;4.27;;;;;;;;;;5070028;28;20260;-70
2023/10/03 00:59:42;;;;;;;5.00;3.47;;;;;;;;;;5070243;28;20212;-70
2023/10/03 01:02:10;;;;;;;8.47;3.80;;;;;;;;;;5070797;28;20812;-70
2023/10/03 01:04:37;;;;;;;5.63;3.73;;;;;;;;;;5070687;28;20228;-70
2023/10/03 01:07:05;;;;;;;8.50;3.93;;;;;;;;;;5069135;28;20290;-70
2023/10/03 01:09:33;;;;;;;8.57;3.60;;;;;;;;;;5070071;28;20208;-70
2023/10/03 01:12:00;;;;;;;5.30;3.93;;;;;;;;;;5070477;28;20657;-70
2023/10/03 01:14:28;;;;;;;6.67;4.20;;;;;;;;;;5070526;28;20292;-70
2023/10/03 01:16:56;;;;;;;6.97;3.80;;;;;;;;;;5070379;28;20280;-70
2023/10/03 01:19:26;;;;;;;4.57;3.43;;;;;;;;;;5070074;28;20311;-70
2023/10/03 01:21:53;;;;;;;5.60;3.30;;;;;;;;;;5069983;28;20197;-70
2023/10/03 01:24:25;;;;;;;5.50;3.43;;;;;;;;;;5069487;28;20617;-70
2023/10/03 01:26:53;;;;;;;6.83;3.90;;;;;;;;;;5070011;28;20229;-70
2023/10/03 01:29:20;;;;;;;7.63;4.70;;;;;;;;;;5056205;28;20197;-70
2023/10/03 01:31:48;;;;;;;5.17;3.17;;;;;;;;;;5069949;28;20240;-70
2023/10/03 01:34:16;;;;;;;5.83;3.60;;;;;;;;;;5069663;28;20208;-70
2023/10/03 01:36:45;;;;;;;5.80;3.93;;;;;;;;;;5069999;28;20236;-70
2023/10/03 01:39:13;;;;;;;6.23;4.07;;;;;;;;;;5070449;28;20219;-71
2023/10/03 01:41:42;;;;;;;6.67;4.03;;;;;;;;;;5070110;28;20215;-70
2023/10/03 01:44:09;;;;;;;5.40;3.20;;;;;;;;;;5070324;28;20201;-70
2023/10/03 01:46:38;;;;;;;5.30;3.80;;;;;;;;;;5069859;28;20225;-70
2023/10/03 01:49:06;;;;;;;5.30;3.67;;;;;;;;;;5069899;28;20581;-70
2023/10/03 01:51:33;;;;;;;5.57;3.80;;;;;;;;;;5069162;28;20254;-70
2023/10/03 01:54:00;;;;;;;4.93;3.87;;;;;;;;;;5073369;28;20201;-70
2023/10/03 01:56:26;;;;;;;4.70;3.60;;;;;;;;;;5060545;28;20216;-70
2023/10/03 01:58:55;;;;;;;14.00;3.73;;;;;;;;;;5073595;28;20591;-70
2023/10/03 02:01:24;;;;;;;5.27;3.87;;;;;;;;;;5072479;28;20251;-70
2023/10/03 02:03:51;;;;;;;6.97;3.67;;;;;;;;;;5062075;28;20201;-70
2023/10/03 02:06:19;;;;;;;9.03;3.67;;;;;;;;;;5072990;28;20274;-70
2023/10/03 02:08:48;;;;;;;4.97;3.50;;;;;;;;;;5073886;28;20288;-70
2023/10/03 02:11:16;;;;;;;6.43;3.23;;;;;;;;;;5072323;28;20739;-71
2023/10/03 02:13:42;;;;;;;3.87;3.10;;;;;;;;;;5073648;28;20284;-70
2023/10/03 02:16:11;;;;;;;6.47;3.37;;;;;;;;;;5072895;28;20225;-70
2023/10/03 02:18:38;;;;;;;4.80;3.07;;;;;;;;;;5073070;28;20201;-70
2023/10/03 02:21:05;;;;;;;5.60;3.60;;;;;;;;;;5072538;28;20265;-70
2023/10/03 02:23:32;;;;;;;6.10;3.80;;;;;;;;;;5073196;28;20640;-70
2023/10/03 02:26:07;;;;;;;6.57;4.00;;;;;;;;;;5072433;28;20233;-70
2023/10/03 02:28:34;;;;;;;6.10;3.27;;;;;;;;;;5072350;28;20207;-70
2023/10/03 02:31:02;;;;;;;6.97;3.77;;;;;;;;;;5073047;28;20208;-70
2023/10/03 02:33:30;;;;;;;5.13;3.70;;;;;;;;;;5073010;28;20598;-70
2023/10/03 02:35:57;;;;;;;5.90;3.90;;;;;;;;;;5072576;28;20744;-70
2023/10/03 02:38:29;;;;;;;5.47;3.80;;;;;;;;;;5072610;28;20208;-70
2023/10/03 02:40:57;;;;;;;9.67;4.00;;;;;;;;;;5063464;28;20237;-70
2023/10/03 02:43:24;;;;;;;5.50;4.03;;;;;;;;;;5068488;28;20201;-70
2023/10/03 02:45:51;;;;;;;7.30;4.37;;;;;;;;;;5062346;28;20255;-70
2023/10/03 02:48:20;;;;;;;7.03;4.07;;;;;;;;;;5054451;28;20691;-70
2023/10/03 02:50:51;;;;;;;5.10;3.53;;;;;;;;;;5042732;28;20255;-71
2023/10/03 02:53:19;;;;;;;6.73;4.10;;;;;;;;;;5055747;28;20202;-70
2023/10/03 02:55:47;;;;;;;8.20;3.37;;;;;;;;;;5054621;28;20680;-70
2023/10/03 02:58:14;;;;;;;8.80;4.33;;;;;;;;;;5057181;28;20201;-70
2023/10/03 03:00:42;;;;;;;5.40;3.70;;;;;;;;;;5055397;28;20221;-70
2023/10/03 03:03:09;;;;;;;6.90;3.90;;;;;;;;;;5057793;28;20588;-70
2023/10/03 03:05:37;;;;;;;4.47;3.30;;;;;;;;;;5055910;28;20212;-70
2023/10/03 03:08:21;;;;;;;5.70;3.60;;;;;;;;;;5059221;28;20268;-70
2023/10/03 03:10:50;;;;;;;6.17;3.53;;;;;;;;;;5057713;28;20213;-71
2023/10/03 03:13:36;;;;;;;7.43;3.90;;;;;;;;;;5058056;28;20692;-71
2023/10/03 03:16:03;;;;;;;4.93;4.17;;;;;;;;;;5066863;28;20198;-70
2023/10/03 03:18:39;;;;;;;5.83;3.97;;;;;;;;;;5060561;28;20198;-70
2023/10/03 03:21:08;;;;;;;9.47;4.00;;;;;;;;;;5063861;28;20312;-70
2023/10/03 03:23:38;;;;;;;5.90;4.27;;;;;;;;;;5072114;28;20702;-70
2023/10/03 03:26:17;;;;;;;6.13;4.03;;;;;;;;;;5071458;28;20577;-70
2023/10/03 03:28:47;;;;;;;6.57;4.33;;;;;;;;;;5072379;28;20203;-70
2023/10/03 03:31:21;;;;;;;9.30;4.93;;;;;;;;;;5071620;28;20200;-70
2023/10/03 03:33:51;;;;;;;8.30;3.43;;;;;;;;;;5071355;28;20219;-70
2023/10/03 03:36:19;;;;;;;5.57;4.17;;;;;;;;;;5071412;28;20216;-70
2023/10/03 03:38:49;;;;;;;5.70;4.37;;;;;;;;;;5069293;28;20660;-70
2023/10/03 03:41:16;;;;;;;7.83;4.83;;;;;;;;;;5051779;28;20212;-70
2023/10/03 03:43:43;;;;;;;6.30;4.40;;;;;;;;;;5057757;28;20273;-70
2023/10/03 03:46:10;;;;;;;8.70;4.07;;;;;;;;;;5071468;28;20291;-70
2023/10/03 03:48:38;;;;;;;6.97;4.43;;;;;;;;;;5050079;28;20224;-76
2023/10/03 03:51:08;;;;;;;9.00;4.50;;;;;;;;;;5053606;28;20205;-73
2023/10/03 03:53:35;;;;;;;6.83;4.07;;;;;;;;;;5068116;28;20625;-73
2023/10/03 03:56:05;;;;;;;8.17;3.97;;;;;;;;;;5051727;28;20205;-72
2023/10/03 03:58:34;;;;;;;4.83;3.83;;;;;;;;;;5051331;28;20217;-72
2023/10/03 04:01:07;;;;;;;4.90;3.20;;;;;;;;;;5051447;28;20197;-72
2023/10/03 04:03:35;;;;;;;7.10;3.60;;;;;;;;;;5051459;28;20201;-72
2023/10/03 04:06:02;;;;;;;6.43;4.17;;;;;;;;;;5051561;28;20291;-72
2023/10/03 04:08:29;;;;;;;5.70;3.43;;;;;;;;;;5054981;28;20232;-72
2023/10/03 04:10:55;;;;;;;7.80;4.00;;;;;;;;;;5066242;28;20199;-72
2023/10/03 04:13:24;;;;;;;11.60;10.17;;;;;;;;;;5064854;28;20214;-72
2023/10/03 04:15:51;;;;;;;13.20;8.57;;;;;;;;;;5041677;28;20222;-73
2023/10/03 04:18:17;;;;;;;13.87;9.07;;;;;;;;;;5051139;28;20209;-72
2023/10/03 04:20:47;;;;;;;10.20;9.23;;;;;;;;;;5064189;28;20227;-72
2023/10/03 04:23:14;;;;;;;8.63;5.40;;;;;;;;;;5038584;28;20271;-72
2023/10/03 04:25:41;;;;;;;13.70;6.20;;;;;;;;;;5050870;28;20255;-73
2023/10/03 04:28:11;;;;;;;9.03;4.67;;;;;;;;;;5050453;28;20236;-72
2023/10/03 04:30:41;;;;;;;5.40;3.50;;;;;;;;;;5050902;28;20208;-72
2023/10/03 04:33:08;;;;;;;9.20;4.73;;;;;;;;;;5050805;28;20213;-72
2023/10/03 04:35:35;;;;;;;5.20;4.40;;;;;;;;;;5050482;28;20568;-72
2023/10/03 04:38:04;;;;;;;7.13;4.20;;;;;;;;;;5050666;28;20680;-72
2023/10/03 04:40:34;;;;;;;13.70;4.77;;;;;;;;;;5060974;28;20244;-73
2023/10/03 04:43:06;;;;;;;11.37;4.50;;;;;;;;;;5069682;28;20282;-73
2023/10/03 04:45:35;;;;;;;14.87;4.73;;;;;;;;;;5068926;28;20766;-73
2023/10/03 04:48:03;;;;;;;10.90;4.77;;;;;;;;;;5069613;28;20235;-73
2023/10/03 04:50:30;;;;;;;11.33;5.40;;;;;;;;;;5069666;28;20610;-73
2023/10/03 04:52:59;;;;;;;9.17;6.27;;;;;;;;;;5069811;28;20250;-73
2023/10/03 04:55:26;;;;;;;18.97;6.20;;;;;;;;;;5070461;28;20288;-73
2023/10/03 04:57:54;;;;;;;13.73;5.93;;;;;;;;;;5069874;28;20197;-73
2023/10/03 05:00:23;;;;;;;12.87;5.60;;;;;;;;;;5070052;28;20225;-73
2023/10/03 05:02:52;;;;;;;14.50;5.40;;;;;;;;;;5069904;28;20558;-73
2023/10/03 05:05:22;;;;;;;26.63;7.67;;;;;;;;;;5070066;28;20197;-73
2023/10/03 05:07:49;;;;;;;13.03;5.63;;;;;;;;;;5069648;28;20225;-73
2023/10/03 05:10:17;;;;;;;13.33;5.37;;;;;;;;;;5070681;28;20202;-73
2023/10/03 05:12:45;;;;;;;15.67;5.03;;;;;;;;;;5070068;28;20293;-73
2023/10/03 05:15:14;;;;;;;20.93;4.87;;;;;;;;;;5070217;28;20244;-73
2023/10/03 05:17:41;;;;;;;9.13;4.53;;;;;;;;;;5070151;28;20211;-73
2023/10/03 05:20:09;;;;;;;7.33;3.80;;;;;;;;;;5070090;28;20189;-73
2023/10/03 05:22:37;;;;;;;5.67;4.30;;;;;;;;;;5069977;28;20201;-73
2023/10/03 05:25:07;;;;;;;10.27;4.67;;;;;;;;;;5070201;28;20258;-73
2023/10/03 05:27:34;;;;;;;12.07;5.07;;;;;;;;;;5072905;28;20800;-73
2023/10/03 05:30:04;;;;;;;8.57;5.13;;;;;;;;;;5073761;28;20196;-73
2023/10/03 05:32:31;;;;;;;11.63;4.53;;;;;;;;;;5073218;28;20207;-73
2023/10/03 05:35:00;;;;;;;16.33;5.23;;;;;;;;;;5073669;28;20218;-73
2023/10/03 05:37:26;;;;;;;10.10;5.43;;;;;;;;;;5074009;28;20197;-73
2023/10/03 05:39:57;;;;;;;12.03;5.47;;;;;;;;;;5074271;28;20205;-73
2023/10/03 05:42:24;;;;;;;9.00;6.03;;;;;;;;;;5073828;28;20208;-73
2023/10/03 05:44:51;;;;;;;12.07;5.60;;;;;;;;;;5073978;28;20200;-72
2023/10/03 05:47:20;;;;;;;13.00;5.13;;;;;;;;;;5073426;28;20228;-73
2023/10/03 05:49:46;;;;;;;11.23;4.90;;;;;;;;;;5074154;28;20228;-73
2023/10/03 05:52:16;;;;;;;5.40;4.07;;;;;;;;;;5073466;28;20205;-73
2023/10/03 05:54:44;;;;;;;6.50;4.40;;;;;;;;;;5073680;28;20295;-73
2023/10/03 05:57:12;;;;;;;10.23;4.83;;;;;;;;;;5073752;28;20209;-73
2023/10/03 05:59:39;;;;;;;4.87;3.77;;;;;;;;;;5073447;28;20201;-73
2023/10/03 06:02:06;;;;;;;13.13;4.97;;;;;;;;;;5073295;28;20201;-73
2023/10/03 06:04:36;;;;;;;7.67;4.53;;;;;;;;;;5073285;28;20223;-73
2023/10/03 06:07:06;;;;;;;9.30;5.30;;;;;;;;;;5047036;28;20194;-73
2023/10/03 06:09:33;;;;;;;8.80;4.57;;;;;;;;;;5073154;28;20201;-73
2023/10/03 06:12:00;;;;;;;10.20;4.00;;;;;;;;;;5073270;28;20200;-73
2023/10/03 06:14:28;;;;;;;6.63;5.03;;;;;;;;;;5073220;28;20196;-73
2023/10/03 06:16:55;;;;;;;8.60;5.07;;;;;;;;;;5073181;28;20286;-73
2023/10/03 06:19:21;;;;;;;5.57;4.37;;;;;;;;;;5073383;28;20213;-73
2023/10/03 06:21:48;;;;;;;8.60;4.50;;;;;;;;;;5072720;28;20201;-73
2023/10/03 06:24:15;;;;;;;12.53;4.73;;;;;;;;;;5072870;28;20201;-73
2023/10/03 06:26:44;;;;;;;5.97;4.53;;;;;;;;;;5073382;28;20267;-73
2023/10/03 06:29:12;;;;;;;6.93;4.50;;;;;;;;;;5072601;28;20290;-73
2023/10/03 06:31:40;;;;;;;8.13;3.83;;;;;;;;;;5072619;28;20765;-73
2023/10/03 06:34:07;;;;;;;9.63;3.63;;;;;;;;;;5072783;28;20209;-73
2023/10/03 06:36:34;;;;;;;10.97;3.97;;;;;;;;;;5072595;28;20242;-73
2023/10/03 06:39:04;;;;;;;7.83;4.47;;;;;;;;;;5072033;28;20254;-73
2023/10/03 06:41:31;;;;;;;7.40;4.23;;;;;;;;;;5073217;28;20201;-73
2023/10/03 06:43:58;;;;;;;8.57;4.53;;;;;;;;;;5072219;28;20205;-73
2023/10/03 06:46:25;;;;;;;5.73;3.40;;;;;;;;;;5072749;28;20576;-73
2023/10/03 06:48:54;;;;;;;6.33;4.13;;;;;;;;;;5072338;28;20282;-73
2023/10/03 06:51:21;;;;;;;10.07;4.10;;;;;;;;;;5072214;28;20212;-73
2023/10/03 06:53:48;;;;;;;8.53;4.17;;;;;;;;;;5072770;28;20281;-73
2023/10/03 06:56:15;;;;;;;10.27;4.47;;;;;;;;;;5072443;28;20220;-73
2023/10/03 06:58:41;;;;;;;7.27;4.17;;;;;;;;;;5072587;28;20193;-73
2023/10/03 07:01:11;;;;;;;11.93;4.53;;;;;;;;;;5072041;28;20667;-73
2023/10/03 07:03:40;;;;;;;9.47;4.03;;;;;;;;;;5071937;28;20214;-73
2023/10/03 07:06:08;;;;;;;7.50;4.03;;;;;;;;;;5072433;28;20632;-73
2023/10/03 07:08:34;;;;;;;5.50;4.10;;;;;;;;;;5072206;28;20231;-73
2023/10/03 07:11:02;;;;;;;6.07;3.87;;;;;;;;;;5072198;28;20224;-74
2023/10/03 07:13:29;;;;;;;7.87;4.60;;;;;;;;;;5072272;28;20218;-74
2023/10/03 07:15:57;;;;;;;10.03;4.87;;;;;;;;;;5072324;28;20211;-73
2023/10/03 07:18:24;;;;;;;9.10;4.53;;;;;;;;;;5072311;28;20253;-73
2023/10/03 07:20:51;;;;;;;7.37;4.20;;;;;;;;;;5071892;28;20202;-74
2023/10/03 07:23:19;;;;;;;6.83;4.77;;;;;;;;;;5071690;28;20266;-73
2023/10/03 07:25:46;;;;;;;11.97;4.40;;;;;;;;;;5071564;28;21087;-74
2023/10/03 07:28:14;;;;;;;6.57;3.90;;;;;;;;;;5072105;28;20231;-74
2023/10/03 07:30:41;;;;;;;7.23;4.90;;;;;;;;;;5071486;28;20236;-73
2023/10/03 07:33:08;;;;;;;6.67;3.80;;;;;;;;;;5072038;28;20295;-74
2023/10/03 07:35:41;;;;;;;6.27;2.97;;;;;;;;;;5071871;28;20212;-74
2023/10/03 07:38:10;;;;;;;7.33;3.70;;;;;;;;;;5071913;28;20269;-74
2023/10/03 07:40:40;;;;;;;8.17;4.03;;;;;;;;;;5071585;28;20285;-73
2023/10/03 07:43:09;;;;;;;8.80;4.13;;;;;;;;;;5071215;28;20205;-74
2023/10/03 07:45:37;;;;;;;5.80;3.17;;;;;;;;;;5071936;28;20216;-74
2023/10/03 07:48:06;;;;;;;10.80;3.60;;;;;;;;;;5071122;28;20231;-74
2023/10/03 07:50:35;;;;;;;8.43;5.00;;;;;;;;;;5069865;28;20193;-74
2023/10/03 07:53:02;;;;;;;8.33;4.57;;;;;;;;;;5071288;28;21386;-74
2023/10/03 07:55:29;;;;;;;6.90;4.53;;;;;;;;;;5071476;28;20201;-74
2023/10/03 07:57:59;;;;;;;7.03;4.37;;;;;;;;;;5071025;28;20213;-74
2023/10/03 08:00:26;;;;;;;16.43;5.23;;;;;;;;;;5071295;28;20644;-74
2023/10/03 08:02:53;;;;;;;11.23;5.07;;;;;;;;;;5071311;28;20283;-74
2023/10/03 08:05:20;;;;;;;11.47;5.07;;;;;;;;;;5070673;28;20271;-74
2023/10/03 08:07:48;;;;;;;9.70;5.23;;;;;;;;;;5070805;28;20224;-74
2023/10/03 08:10:16;;;;;;;8.53;4.80;;;;;;;;;;5071380;28;20213;-74
2023/10/03 08:12:44;;;;;;;10.63;4.60;;;;;;;;;;5070545;28;20211;-74
2023/10/03 08:15:18;;;;;;;9.43;6.97;;;;;;;;;;5045292;28;20208;-74
2023/10/03 08:17:48;;;;;;;11.80;6.53;;;;;;;;;;5070949;28;20749;-74
2023/10/03 08:20:15;;;;;;;8.50;4.23;;;;;;;;;;5070718;28;20228;-74
2023/10/03 08:22:46;;;;;;;9.03;4.40;;;;;;;;;;5070284;28;20201;-74
2023/10/03 08:25:17;;;;;;;8.17;4.10;;;;;;;;;;5071383;28;20201;-74
2023/10/03 08:27:46;;;;;;;8.23;4.27;;;;;;;;;;5070285;28;20193;-74
2023/10/03 08:30:25;;;;;;;5.83;4.03;;;;;;;;;;5071506;28;20599;-74
2023/10/03 08:32:55;;;;;;;8.33;3.93;;;;;;;;;;5070016;28;20228;-74
2023/10/03 08:35:34;;;;;;;9.03;4.10;;;;;;;;;;5070847;28;20229;-74
2023/10/03 08:38:04;;;;;;;10.60;3.97;;;;;;;;;;5047270;28;20636;-74
2023/10/03 08:40:32;;;;;;;10.47;4.20;;;;;;;;;;5070756;28;20676;-74
2023/10/03 08:43:02;;;;;;;8.80;5.33;;;;;;;;;;5070616;28;20201;-74
2023/10/03 08:45:35;;;;;;;5.73;3.97;;;;;;;;;;5070808;28;20215;-74
2023/10/03 08:48:05;;;;;;;7.77;4.60;;;;;;;;;;5070325;28;20274;-74
2023/10/03 08:50:39;;;;;;;9.40;4.60;;;;;;;;;;5070376;28;20680;-74
2023/10/03 08:53:26;;;;;;;6.77;3.80;;;;;;;;;;5069851;28;20207;-74
2023/10/03 08:55:57;;;;;;;7.70;4.40;;;;;;;;;;5070520;28;20197;-74
2023/10/03 08:58:25;;;;;;;8.00;4.00;;;;;;;;;;5070382;28;20580;-74
2023/10/03 09:00:58;;;;;;;9.27;5.17;;;;;;;;;;5070272;28;20193;-74
2023/10/03 09:03:29;;;;;;;5.13;4.43;;;;;;;;;;5070054;28;20205;-74
2023/10/03 09:05:58;;;;;;;8.17;4.40;;;;;;;;;;5070280;28;20211;-74
2023/10/03 09:08:26;;;;;;;5.77;4.17;;;;;;;;;;5070346;28;20612;-74
2023/10/03 09:10:53;;;;;;;9.73;5.07;;;;;;;;;;5070544;28;20236;-74
2023/10/03 09:13:26;;;;;;;6.03;4.17;;;;;;;;;;5069668;28;20288;-74
2023/10/03 09:16:06;;;;;;;6.23;4.03;;;;;;;;;;5070412;28;20205;-74
2023/10/03 09:18:40;;;;;;;6.97;4.40;;;;;;;;;;5059059;28;20204;-75
2023/10/03 09:21:07;;;;;;;7.73;4.27;;;;;;;;;;5070073;28;20675;-74
2023/10/03 09:23:39;;;;;;;11.90;4.93;;;;;;;;;;5070286;28;20205;-74
2023/10/03 09:26:08;;;;;;;12.87;5.53;;;;;;;;;;5069769;28;20291;-74
2023/10/03 09:28:40;;;;;;;7.27;4.60;;;;;;;;;;5069909;28;20271;-74
2023/10/03 09:31:11;;;;;;;6.57;4.93;;;;;;;;;;5069860;28;20208;-74
2023/10/03 09:33:41;;;;;;;7.67;4.43;;;;;;;;;;5070081;28;20255;-74
2023/10/03 09:36:09;;;;;;;7.63;5.10;;;;;;;;;;5069769;28;20231;-74
2023/10/03 09:38:42;;;;;;;8.97;4.63;;;;;;;;;;5069879;28;20262;-74
2023/10/03 09:41:16;;;;;;;7.03;4.23;;;;;;;;;;5069791;28;20748;-74
2023/10/03 09:43:47;;;;;;;6.03;4.57;;;;;;;;;;5069802;28;20732;-74
2023/10/03 09:46:23;;;;;;;10.10;5.60;;;;;;;;;;5069680;28;20596;-74
2023/10/03 09:48:53;;;;;;;10.60;4.50;;;;;;;;;;5069768;28;20236;-74
2023/10/03 09:51:36;;;;;;;8.00;4.10;;;;;;;;;;5069320;28;20209;-74
2023/10/03 09:54:06;;;;;;;8.57;4.70;;;;;;;;;;5070298;28;20675;-74
2023/10/03 09:56:36;;;;;;;7.87;4.57;;;;;;;;;;5069792;28;20236;-74
2023/10/03 09:59:05;;;;;;;5.67;4.23;;;;;;;;;;5070234;28;20193;-74
2023/10/03 10:01:35;;;;;;;9.77;4.70;;;;;;;;;;5069947;28;20291;-74
2023/10/03 10:04:03;;;;;;;9.03;5.27;;;;;;;;;;5069573;28;20284;-74
2023/10/03 10:06:37;;;;;;;7.00;4.47;;;;;;;;;;5069665;28;20201;-74
2023/10/03 10:09:13;;;;;;;8.37;4.67;;;;;;;;;;5069869;28;20607;-74
2023/10/03 10:12:18;;;;;;;7.70;4.60;;;;;;;;;;5069329;28;20197;-74
2023/10/03 10:15:14;;;;;;;8.80;5.00;;;;;;;;;;5072708;28;20197;-74
2023/10/03 10:17:49;;;;;;;7.23;4.00;;;;;;;;;;5068448;28;20205;-74
2023/10/03 10:20:27;;;;;;;9.07;4.97;;;;;;;;;;5073610;28;20208;-74
2023/10/03 10:23:20;;;;;;;8.23;5.27;;;;;;;;;;5072622;28;20259;-74
2023/10/03 10:25:51;;;;;;;12.53;5.07;;;;;;;;;;5073086;28;20201;-74
2023/10/03 10:28:25;;;;;;;8.67;4.53;;;;;;;;;;5073313;28;20201;-74
2023/10/03 10:31:22;;;;;;;12.00;4.60;;;;;;;;;;5072274;28;20712;-74
2023/10/03 10:33:51;;;;;;;8.43;4.70;;;;;;;;;;5064191;28;20197;-74
2023/10/03 10:36:18;;;;;;;8.13;4.63;;;;;;;;;;5073031;28;20330;-74
2023/10/03 10:38:55;;;;;;;7.63;4.50;;;;;;;;;;5072656;28;20209;-74
2023/10/03 10:41:27;;;;;;;6.00;4.13;;;;;;;;;;5072901;28;20704;-74
2023/10/03 10:44:13;;;;;;;6.67;4.17;;;;;;;;;;5072405;28;20197;-74
2023/10/03 10:46:46;;;;;;;8.77;4.87;;;;;;;;;;5072797;28;20197;-75
2023/10/03 10:49:52;;;;;;;7.53;4.13;;;;;;;;;;5047187;28;20247;-74
2023/10/03 10:52:20;;;;;;;6.93;4.07;;;;;;;;;;5072813;28;20213;-74
2023/10/03 10:54:46;;;;;;;6.93;4.47;;;;;;;;;;5072554;28;20205;-74
2023/10/03 10:57:15;;;;;;;9.53;4.47;;;;;;;;;;5072349;28;20216;-74
2023/10/03 10:59:43;;;;;;;4.70;3.73;;;;;;;;;;5072305;28;20228;-74
2023/10/03 11:02:19;;;;;;;7.93;3.87;;;;;;;;;;5072288;28;20250;-74
2023/10/03 11:04:53;;;;;;;5.57;4.23;;;;;;;;;;5072008;28;20697;-74
2023/10/03 11:07:22;;;;;;;8.33;4.60;;;;;;;;;;5071968;28;20245;-74
2023/10/03 11:09:52;;;;;;;9.90;5.73;;;;;;;;;;5072198;28;20252;-73
2023/10/03 11:12:25;;;;;;;7.47;4.70;;;;;;;;;;5072206;28;20212;-74
2023/10/03 11:14:53;;;;;;;14.93;5.07;;;;;;;;;;5071832;28;20255;-73
2023/10/03 11:17:20;;;;;;;7.63;4.03;;;;;;;;;;5072022;28;20212;-74
2023/10/03 11:19:47;;;;;;;9.80;4.33;;;;;;;;;;5072321;28;20214;-74
2023/10/03 11:22:15;;;;;;;5.90;4.33;;;;;;;;;;5059889;28;20213;-74
2023/10/03 11:24:44;;;;;;;9.10;3.67;;;;;;;;;;5071210;28;20228;-74
2023/10/03 11:27:22;;;;;;;12.63;5.07;;;;;;;;;;5072067;28;20212;-74
2023/10/03 11:29:49;;;;;;;6.90;4.27;;;;;;;;;;5047551;28;20236;-74
2023/10/03 11:32:22;;;;;;;7.73;4.13;;;;;;;;;;5071533;28;20197;-74
2023/10/03 11:34:49;;;;;;;7.13;4.33;;;;;;;;;;5071812;28;20232;-74
2023/10/03 11:37:33;;;;;;;5.63;3.90;;;;;;;;;;5071092;28;20215;-74
2023/10/03 11:40:11;;;;;;;9.20;4.50;;;;;;;;;;5071980;28;20219;-73
2023/10/03 11:42:48;;;;;;;12.03;5.20;;;;;;;;;;5071345;28;20682;-74
2023/10/03 11:45:18;;;;;;;9.17;5.13;;;;;;;;;;5071403;28;20201;-74
2023/10/03 11:47:46;;;;;;;8.67;4.13;;;;;;;;;;5071411;28;20299;-74
2023/10/03 11:50:13;;;;;;;7.23;4.67;;;;;;;;;;5071001;28;20310;-74
2023/10/03 11:52:39;;;;;;;7.10;4.30;;;;;;;;;;5071738;28;20201;-73
2023/10/03 11:55:09;;;;;;;7.60;4.37;;;;;;;;;;5071120;28;20205;-74
2023/10/03 11:57:39;;;;;;;7.23;4.40;;;;;;;;;;5071441;28;20595;-74
2023/10/03 12:00:14;;;;;;;10.33;4.53;;;;;;;;;;5070545;28;20201;-74
2023/10/03 12:02:41;;;;;;;6.23;4.43;;;;;;;;;;5071088;28;20278;-74
2023/10/03 12:05:11;;;;;;;8.40;4.77;;;;;;;;;;5071447;28;20261;-73
2023/10/03 12:07:39;;;;;;;7.40;4.27;;;;;;;;;;5071226;28;20293;-74
2023/10/03 12:10:10;;;;;;;6.40;4.23;;;;;;;;;;5071184;28;20225;-74
2023/10/03 12:12:38;;;;;;;6.40;3.90;;;;;;;;;;5070913;28;20208;-73
2023/10/03 12:15:07;;;;;;;11.30;5.17;;;;;;;;;;5070793;28;20237;-74
2023/10/03 12:17:35;;;;;;;8.90;4.73;;;;;;;;;;5070570;28;20687;-74
2023/10/03 12:20:01;;;;;;;10.80;4.40;;;;;;;;;;5045829;28;20201;-73
2023/10/03 12:22:28;;;;;;;8.27;4.50;;;;;;;;;;5057541;28;20216;-73
2023/10/03 12:24:55;;;;;;;14.00;5.07;;;;;;;;;;5070918;28;20200;-73
2023/10/03 12:27:23;;;;;;;8.87;4.60;;;;;;;;;;5069755;28;20204;-73
2023/10/03 12:29:51;;;;;;;8.27;4.43;;;;;;;;;;5070570;28;20703;-74
2023/10/03 12:32:18;;;;;;;7.47;4.07;;;;;;;;;;5070168;28;20205;-74
2023/10/03 12:34:46;;;;;;;9.43;4.30;;;;;;;;;;5071107;28;20220;-73
2023/10/03 12:37:16;;;;;;;9.17;5.10;;;;;;;;;;5069671;28;20205;-73
2023/10/03 12:39:43;;;;;;;9.57;5.33;;;;;;;;;;5070920;28;20231;-73
2023/10/03 12:42:11;;;;;;;8.73;4.50;;;;;;;;;;5070301;28;20212;-73
2023/10/03 12:44:39;;;;;;;12.20;4.43;;;;;;;;;;5061851;28;20757;-73
2023/10/03 12:47:06;;;;;;;12.37;4.77;;;;;;;;;;5066406;28;20688;-73
2023/10/03 12:49:33;;;;;;;10.90;4.20;;;;;;;;;;5070542;28;20293;-74
2023/10/03 12:51:59;;;;;;;7.13;4.63;;;;;;;;;;5070228;28;20255;-73
2023/10/03 12:54:27;;;;;;;9.10;4.97;;;;;;;;;;5070668;28;20201;-74
2023/10/03 12:56:53;;;;;;;14.00;4.70;;;;;;;;;;5070830;28;20201;-74
2023/10/03 12:59:20;;;;;;;8.57;4.10;;;;;;;;;;5070669;28;20273;-74
2023/10/03 13:01:48;;;;;;;7.07;4.97;;;;;;;;;;5070288;28;20197;-74
2023/10/03 13:04:18;;;;;;;6.87;5.10;;;;;;;;;;5070826;28;20201;-73
2023/10/03 13:06:45;;;;;;;9.47;4.97;;;;;;;;;;5070303;28;20679;-73
2023/10/03 13:09:13;;;;;;;6.17;3.97;;;;;;;;;;5069665;28;20648;-73
2023/10/03 13:11:41;;;;;;;11.17;5.27;;;;;;;;;;5070594;28;20301;-73
2023/10/03 13:14:09;;;;;;;6.07;4.70;;;;;;;;;;5058033;28;20255;-73
2023/10/03 13:16:35;;;;;;;9.40;5.07;;;;;;;;;;5068611;28;20205;-73
2023/10/03 13:19:04;;;;;;;7.37;4.80;;;;;;;;;;5070837;28;20254;-73
2023/10/03 13:21:31;;;;;;;8.00;4.30;;;;;;;;;;5069407;28;20193;-73
2023/10/03 13:23:58;;;;;;;8.10;4.87;;;;;;;;;;5070395;28;20212;-73
2023/10/03 13:26:25;;;;;;;16.47;4.53;;;;;;;;;;5069919;28;20207;-73
2023/10/03 13:28:52;;;;;;;9.03;5.37;;;;;;;;;;5070204;28;20227;-74
2023/10/03 13:31:18;;;;;;;8.93;4.83;;;;;;;;;;5069625;28;20225;-73
2023/10/03 13:33:45;;;;;;;12.20;4.80;;;;;;;;;;5070569;28;20212;-73
2023/10/03 13:36:14;;;;;;;7.77;4.53;;;;;;;;;;5069881;28;20205;-73
2023/10/03 13:38:41;;;;;;;7.10;4.37;;;;;;;;;;5069374;28;20205;-73
2023/10/03 13:41:08;;;;;;;8.43;4.60;;;;;;;;;;5070385;28;20205;-73
2023/10/03 13:43:34;;;;;;;7.87;4.53;;;;;;;;;;5069901;28;20671;-73
2023/10/03 13:46:02;;;;;;;8.77;5.10;;;;;;;;;;5069935;28;20205;-73
2023/10/03 13:48:29;;;;;;;12.03;4.93;;;;;;;;;;5071051;28;20233;-73
2023/10/03 13:51:01;;;;;;;6.17;4.37;;;;;;;;;;5073692;28;20225;-73
2023/10/03 13:53:29;;;;;;;7.73;4.33;;;;;;;;;;5072998;28;20204;-74
2023/10/03 13:55:58;;;;;;;5.23;4.40;;;;;;;;;;5073606;28;20633;-73
2023/10/03 13:58:29;;;;;;;6.20;4.53;;;;;;;;;;5073443;28;20201;-73
2023/10/03 14:00:55;;;;;;;7.33;4.53;;;;;;;;;;5073438;28;20247;-74
2023/10/03 14:03:22;;;;;;;9.33;4.90;;;;;;;;;;5073134;28;20737;-73
2023/10/03 14:05:49;;;;;;;10.03;5.00;;;;;;;;;;5073706;28;20201;-73
2023/10/03 14:08:17;;;;;;;9.23;4.40;;;;;;;;;;5072319;28;20212;-73
2023/10/03 14:10:45;;;;;;;11.30;4.73;;;;;;;;;;5073646;28;20775;-73
2023/10/03 14:13:12;;;;;;;9.83;4.67;;;;;;;;;;5072971;28;20624;-73
2023/10/03 14:15:40;;;;;;;9.50;4.27;;;;;;;;;;5073549;28;21202;-73
2023/10/03 14:18:08;;;;;;;9.07;4.90;;;;;;;;;;5073117;28;20228;-73
2023/10/03 14:20:35;;;;;;;10.50;4.87;;;;;;;;;;5073486;28;20201;-73
2023/10/03 14:23:03;;;;;;;8.87;4.60;;;;;;;;;;5072912;28;20231;-73
2023/10/03 14:25:30;;;;;;;8.83;5.23;;;;;;;;;;5069992;28;20241;-73
2023/10/03 14:27:59;;;;;;;8.60;5.10;;;;;;;;;;5071871;28;20608;-73
2023/10/03 14:30:25;;;;;;;7.97;4.97;;;;;;;;;;5069418;28;20320;-73
2023/10/03 14:32:53;;;;;;;6.77;4.27;;;;;;;;;;5066981;28;20581;-73
2023/10/03 14:35:21;;;;;;;13.60;5.80;;;;;;;;;;5065825;28;20205;-73
2023/10/03 14:37:47;;;;;;;9.47;5.13;;;;;;;;;;5072784;28;20222;-73
2023/10/03 14:40:18;;;;;;;11.53;5.00;;;;;;;;;;5072812;28;20205;-73
2023/10/03 14:42:44;;;;;;;9.63;5.10;;;;;;;;;;5047072;28;20192;-73
2023/10/03 14:45:14;;;;;;;13.37;5.60;;;;;;;;;;5072468;28;20209;-73
2023/10/03 14:47:41;;;;;;;9.33;5.43;;;;;;;;;;5073098;28;20229;-73
2023/10/03 14:50:10;;;;;;;11.80;5.10;;;;;;;;;;5071853;28;20263;-73
2023/10/03 14:52:37;;;;;;;9.40;4.93;;;;;;;;;;5072110;28;20255;-73